createdAt,value
2022-12-26T00:01:10.418Z,12.13
2022-12-26T00:06:13.170Z,11.99
2022-12-26T00:11:14.764Z,12.02
2022-12-26T00:16:17.526Z,11.92
2022-12-26T00:21:19.479Z,12.03
2022-12-26T00:26:22.303Z,12.15
2022-12-26T00:31:25.036Z,12.10
2022-12-26T00:36:28.140Z,12.10
2022-12-26T00:41:29.948Z,12.12
2022-12-26T00:46:31.340Z,12.09
2022-12-26T00:51:32.678Z,11.99
2022-12-26T00:56:33.995Z,11.85
2022-12-26T01:01:35.436Z,11.77
2022-12-26T01:06:36.832Z,11.89
2022-12-26T01:11:40.878Z,11.75
2022-12-26T01:16:42.975Z,11.69
2022-12-26T01:21:44.424Z,11.55
2022-12-26T01:26:46.227Z,11.45
2022-12-26T01:31:47.687Z,11.18
2022-12-26T01:36:49.093Z,11.34
2022-12-26T01:41:50.491Z,11.41
2022-12-26T01:46:52.154Z,11.67
2022-12-26T01:51:57.687Z,11.60
2022-12-26T01:57:01.422Z,11.59
2022-12-26T02:02:03.351Z,11.72
2022-12-26T02:07:05.687Z,11.72
2022-12-26T02:12:34.892Z,11.81
2022-12-26T02:17:32.467Z,11.92
2022-12-26T02:22:39.970Z,11.67
2022-12-26T02:27:56.715Z,11.79
2022-12-26T02:33:16.787Z,11.83
2022-12-26T02:38:18.111Z,11.40
2022-12-26T02:43:23.219Z,11.37
2022-12-26T02:48:35.853Z,11.39
2022-12-26T02:54:14.615Z,11.55
2022-12-26T02:59:55.652Z,11.53
2022-12-26T03:05:16.917Z,11.47
2022-12-26T03:10:56.849Z,11.41
2022-12-26T03:16:19.360Z,11.38
2022-12-26T03:21:23.027Z,11.37
2022-12-26T03:26:40.289Z,11.22
2022-12-26T03:31:41.667Z,10.98
2022-12-26T03:37:01.354Z,10.84
2022-12-26T03:42:27.106Z,11.31
2022-12-26T03:47:57.191Z,11.14
2022-12-26T03:53:31.833Z,10.98
2022-12-26T03:59:24.215Z,10.94
2022-12-26T04:04:46.291Z,10.69
2022-12-26T04:10:09.134Z,10.64
2022-12-26T04:15:37.588Z,10.56
2022-12-26T04:20:54.030Z,10.56
2022-12-26T04:26:21.236Z,10.53
2022-12-26T04:31:41.062Z,10.74
2022-12-26T04:37:04.267Z,10.69
2022-12-26T04:42:25.113Z,10.72
2022-12-26T04:47:26.600Z,10.63
2022-12-26T04:52:48.544Z,10.56
2022-12-26T04:57:49.852Z,10.43
2022-12-26T05:03:16.273Z,10.22
2022-12-26T05:08:43.293Z,10.07
2022-12-26T05:13:44.680Z,10.18
2022-12-26T05:19:04.482Z,10.09
2022-12-26T05:24:24.542Z,10.20
2022-12-26T05:29:25.982Z,10.37
2022-12-26T05:34:27.374Z,10.35
2022-12-26T05:39:28.762Z,10.45
2022-12-26T05:44:30.106Z,10.38
2022-12-26T05:49:31.528Z,10.21
2022-12-26T05:54:32.851Z,10.28
2022-12-26T05:59:34.190Z,10.31
2022-12-26T06:04:36.517Z,10.43
2022-12-26T06:09:37.853Z,10.47
2022-12-26T06:14:39.184Z,10.35
2022-12-26T06:19:46.490Z,10.43
2022-12-26T06:24:48.288Z,10.48
2022-12-26T06:29:49.666Z,10.35
2022-12-26T06:34:50.999Z,10.47
2022-12-26T06:39:52.362Z,10.32
2022-12-26T06:44:53.677Z,10.21
2022-12-26T06:49:54.996Z,10.21
2022-12-26T06:54:58.718Z,10.45
2022-12-26T07:00:00.086Z,10.82
2022-12-26T07:05:01.473Z,11.07
2022-12-26T07:10:02.805Z,11.03
2022-12-26T07:15:04.387Z,11.01
2022-12-26T07:20:06.082Z,11.04
2022-12-26T07:25:07.645Z,11.04
2022-12-26T07:30:09.278Z,11.05
2022-12-26T07:35:10.610Z,11.00
2022-12-26T07:40:12.318Z,11.13
2022-12-26T07:45:13.737Z,10.98
2022-12-26T07:50:15.056Z,10.97
2022-12-26T07:55:16.439Z,10.97
2022-12-26T08:00:19.273Z,10.99
2022-12-26T08:05:21.006Z,10.98
2022-12-26T08:10:23.284Z,10.96
2022-12-26T08:15:24.632Z,10.96
2022-12-26T08:20:26.196Z,11.03
2022-12-26T08:25:29.339Z,11.02
2022-12-26T08:30:30.689Z,11.06
2022-12-26T08:35:33.537Z,11.10
2022-12-26T08:40:43.625Z,11.07
2022-12-26T08:45:45.873Z,11.10
2022-12-26T08:50:47.389Z,10.97
2022-12-26T08:55:48.744Z,11.05
2022-12-26T09:00:55.094Z,11.13
2022-12-26T09:06:05.496Z,11.20
2022-12-26T09:11:11.186Z,11.24
2022-12-26T09:16:38.380Z,11.49
2022-12-26T09:21:40.937Z,11.27
2022-12-26T09:26:43.216Z,11.17
2022-12-26T09:31:44.612Z,11.21
2022-12-26T09:36:45.990Z,11.56
2022-12-26T09:41:53.332Z,11.89
2022-12-26T09:47:00.839Z,11.91
2022-12-26T09:52:05.829Z,11.98
2022-12-26T09:57:14.895Z,12.00
2022-12-26T10:02:18.759Z,12.24
2022-12-26T10:07:42.686Z,12.58
2022-12-26T10:12:44.014Z,12.81
2022-12-26T10:17:45.295Z,12.83
2022-12-26T10:22:58.959Z,13.12
2022-12-26T10:28:01.594Z,13.01
2022-12-26T10:33:08.670Z,13.00
2022-12-26T10:38:30.244Z,12.76
2022-12-26T10:43:32.959Z,12.70
2022-12-26T10:48:34.311Z,12.57
2022-12-26T10:53:38.865Z,12.59
2022-12-26T10:58:41.049Z,12.69
2022-12-26T11:03:53.902Z,12.60
2022-12-26T11:08:55.405Z,12.89
2022-12-26T11:14:02.243Z,12.96
2022-12-26T11:19:04.552Z,13.17
2022-12-26T11:24:08.867Z,13.26
2022-12-26T11:29:13.330Z,13.13
2022-12-26T11:34:17.641Z,13.05
2022-12-26T11:39:30.487Z,13.28
2022-12-26T11:44:34.555Z,13.22
2022-12-26T11:49:38.770Z,13.15
2022-12-26T11:54:48.300Z,13.08
2022-12-26T11:59:50.382Z,12.94
2022-12-26T12:04:54.881Z,12.75
2022-12-26T12:10:04.176Z,12.67
2022-12-26T12:15:10.052Z,12.53
2022-12-26T12:20:14.246Z,12.41
2022-12-26T12:25:30.757Z,12.12
2022-12-26T12:30:43.656Z,11.27
2022-12-26T12:36:03.533Z,10.37
2022-12-26T12:41:23.428Z,9.85
2022-12-26T12:47:03.319Z,9.64
2022-12-26T12:52:27.619Z,9.57
2022-12-26T12:57:47.563Z,9.61
2022-12-26T13:02:53.455Z,9.78
2022-12-26T13:08:01.180Z,10.05
2022-12-26T13:13:10.891Z,10.48
2022-12-26T13:18:23.284Z,10.81
2022-12-26T13:23:46.306Z,11.29
2022-12-26T13:28:50.457Z,11.00
2022-12-26T13:33:51.800Z,10.82
2022-12-26T13:38:56.261Z,10.73
2022-12-26T13:44:01.924Z,10.36
2022-12-26T13:49:03.539Z,10.22
2022-12-26T13:54:10.410Z,10.16
2022-12-26T13:59:24.397Z,10.25
2022-12-26T14:04:28.826Z,10.07
2022-12-26T14:09:47.771Z,10.16
2022-12-26T14:14:54.343Z,10.05
2022-12-26T14:20:22.379Z,10.04
2022-12-26T14:25:29.912Z,10.02
2022-12-26T14:30:51.083Z,10.00
2022-12-26T14:35:52.401Z,9.98
2022-12-26T14:41:33.506Z,9.80
2022-12-26T14:46:38.548Z,8.95
2022-12-26T14:51:40.633Z,8.55
2022-12-26T14:56:42.169Z,8.27
2022-12-26T15:01:47.754Z,8.11
2022-12-26T15:06:58.359Z,8.10
2022-12-26T15:12:18.410Z,7.92
2022-12-26T15:17:19.750Z,7.90
2022-12-26T15:22:27.186Z,7.85
2022-12-26T15:27:31.649Z,7.80
2022-12-26T15:32:43.813Z,7.79
2022-12-26T15:37:57.096Z,7.80
2022-12-26T15:42:58.404Z,7.72
2022-12-26T15:48:29.831Z,7.67
2022-12-26T15:53:34.240Z,7.74
2022-12-26T15:58:54.413Z,7.66
2022-12-26T16:03:57.005Z,7.65
2022-12-26T16:09:05.979Z,7.65
2022-12-26T16:14:10.682Z,7.48
2022-12-26T16:19:22.781Z,7.47
2022-12-26T16:24:24.467Z,7.37
2022-12-26T16:29:25.844Z,7.23
2022-12-26T16:34:27.436Z,7.14
2022-12-26T16:39:28.849Z,6.95
2022-12-26T16:44:36.198Z,6.83
2022-12-26T16:49:38.086Z,6.76
2022-12-26T16:54:40.297Z,6.62
2022-12-26T16:59:52.704Z,6.68
2022-12-26T17:05:05.325Z,6.72
2022-12-26T17:10:12.253Z,6.68
2022-12-26T17:15:22.941Z,6.68
2022-12-26T17:20:29.310Z,6.67
2022-12-26T17:25:31.137Z,6.73
2022-12-26T17:30:32.530Z,6.72
2022-12-26T17:36:06.035Z,6.61
2022-12-26T17:40:58.122Z,6.48
2022-12-26T17:45:59.600Z,6.18
2022-12-26T17:51:02.421Z,6.01
2022-12-26T17:56:08.333Z,5.96
2022-12-26T18:01:10.017Z,5.90
2022-12-26T18:06:14.611Z,5.87
2022-12-26T18:11:16.040Z,5.92
2022-12-26T18:16:18.698Z,5.90
2022-12-26T18:21:20.119Z,5.88
2022-12-26T18:26:26.221Z,5.88
2022-12-26T18:31:28.163Z,5.97
2022-12-26T18:36:31.551Z,6.04
2022-12-26T18:41:33.115Z,5.99
2022-12-26T18:46:34.601Z,5.96
2022-12-26T18:51:39.369Z,5.90
2022-12-26T18:56:40.715Z,5.83
2022-12-26T19:01:42.194Z,5.79
2022-12-26T19:06:43.585Z,5.58
2022-12-26T19:11:45.283Z,5.26
2022-12-26T19:16:47.029Z,5.26
2022-12-26T19:21:48.495Z,5.25
2022-12-26T19:26:49.836Z,5.10
2022-12-26T19:31:51.286Z,4.84
2022-12-26T19:36:52.652Z,4.65
2022-12-26T19:41:53.995Z,4.42
2022-12-26T19:47:11.429Z,4.09
2022-12-26T19:52:14.296Z,3.87
2022-12-26T19:57:15.728Z,3.73
2022-12-26T20:02:17.260Z,3.61
2022-12-26T20:07:18.660Z,3.61
2022-12-26T20:12:20.081Z,3.84
2022-12-26T20:17:21.732Z,3.79
2022-12-26T20:22:23.704Z,3.74
2022-12-26T20:27:25.181Z,3.61
2022-12-26T20:32:26.514Z,3.41
2022-12-26T20:37:27.867Z,3.20
2022-12-26T20:42:29.302Z,2.97
2022-12-26T20:47:30.845Z,2.83
2022-12-26T20:52:32.352Z,2.90
2022-12-26T20:57:33.663Z,2.67
2022-12-26T21:02:35.187Z,2.53
2022-12-26T21:07:36.826Z,2.35
2022-12-26T21:12:38.277Z,2.22
2022-12-26T21:17:39.586Z,2.08
2022-12-26T21:22:41.501Z,2.12
2022-12-26T21:27:43.295Z,2.01
2022-12-26T21:32:47.674Z,1.86
2022-12-26T21:37:49.179Z,1.93
2022-12-26T21:42:50.533Z,1.91
2022-12-26T21:47:53.092Z,1.78
2022-12-26T21:52:55.279Z,1.64
2022-12-26T21:57:57.992Z,1.58
2022-12-26T22:03:18.176Z,1.53
2022-12-26T22:08:19.574Z,1.54
2022-12-26T22:13:22.181Z,1.56
2022-12-26T22:18:23.495Z,1.54
2022-12-26T22:23:24.999Z,1.58
2022-12-26T22:28:26.755Z,1.68
2022-12-26T22:33:28.462Z,1.83
2022-12-26T22:38:30.346Z,1.78
2022-12-26T22:43:32.312Z,1.78
2022-12-26T22:48:33.866Z,1.69
2022-12-26T22:53:35.233Z,1.69
2022-12-26T22:58:36.711Z,1.39
2022-12-26T23:03:38.123Z,1.36
2022-12-26T23:08:39.577Z,1.39
2022-12-26T23:13:41.105Z,1.59
2022-12-26T23:19:04.541Z,1.63
2022-12-26T23:24:07.411Z,1.96
2022-12-26T23:29:29.370Z,2.08
2022-12-26T23:34:30.864Z,2.20
2022-12-26T23:39:32.308Z,2.02
2022-12-26T23:44:33.662Z,1.89
2022-12-26T23:49:35.042Z,2.02
2022-12-26T23:54:36.647Z,2.19
2022-12-26T23:59:37.975Z,2.29
